createdAt,value
2023-04-25T00:00:17.746Z,7.60
2023-04-25T00:02:44.623Z,7.60
2023-04-25T00:05:13.156Z,7.50
2023-04-25T00:07:40.096Z,7.30
2023-04-25T00:10:09.524Z,7.10
2023-04-25T00:12:37.015Z,7.00
2023-04-25T00:15:04.252Z,7.00
2023-04-25T00:17:32.142Z,6.90
2023-04-25T00:19:59.308Z,7.00
2023-04-25T00:22:26.062Z,7.10
2023-04-25T00:24:54.274Z,7.10
2023-04-25T00:27:21.094Z,7.20
2023-04-25T00:29:47.785Z,7.20
2023-04-25T00:32:14.483Z,7.30
2023-04-25T00:34:41.438Z,7.30
2023-04-25T00:37:08.256Z,7.40
2023-04-25T00:39:36.264Z,7.40
2023-04-25T00:42:03.987Z,7.40
2023-04-25T00:44:33.232Z,7.40
2023-04-25T00:47:02.674Z,7.40
2023-04-25T00:49:29.447Z,7.40
2023-04-25T00:51:57.525Z,7.40
2023-04-25T00:54:24.397Z,7.50
2023-04-25T00:56:51.622Z,7.50
2023-04-25T00:59:21.547Z,7.50
2023-04-25T01:01:49.015Z,7.60
2023-04-25T01:04:16.154Z,7.50
2023-04-25T01:06:43.237Z,7.50
2023-04-25T01:09:10.484Z,7.40
2023-04-25T01:11:37.386Z,7.40
2023-04-25T01:14:06.613Z,7.40
2023-04-25T01:16:34.118Z,7.30
2023-04-25T01:19:01.422Z,7.20
2023-04-25T01:21:30.688Z,7.20
2023-04-25T01:23:58.564Z,7.20
2023-04-25T01:26:26.158Z,7.10
2023-04-25T01:28:53.328Z,7.10
2023-04-25T01:31:22.498Z,7.20
2023-04-25T01:33:49.694Z,7.20
2023-04-25T01:36:17.372Z,7.20
2023-04-25T01:38:45.029Z,7.10
2023-04-25T01:41:12.194Z,7.20
2023-04-25T01:43:39.076Z,7.30
2023-04-25T01:46:06.171Z,7.30
2023-04-25T01:48:33.711Z,7.30
2023-04-25T01:51:00.529Z,7.30
2023-04-25T01:53:27.717Z,7.30
2023-04-25T01:55:54.458Z,7.30
2023-04-25T01:58:21.306Z,7.40
2023-04-25T02:00:48.167Z,7.30
2023-04-25T02:03:17.695Z,7.20
2023-04-25T02:05:44.546Z,7.20
2023-04-25T02:08:11.528Z,7.20
2023-04-25T02:10:38.651Z,7.20
2023-04-25T02:13:06.213Z,7.30
2023-04-25T02:15:32.994Z,7.30
2023-04-25T02:18:01.154Z,7.30
2023-04-25T02:20:30.949Z,7.20
2023-04-25T02:22:57.829Z,7.20
2023-04-25T02:25:24.853Z,7.20
2023-04-25T02:27:52.343Z,7.10
2023-04-25T02:30:19.314Z,7.00
2023-04-25T02:32:47.158Z,6.90
2023-04-25T02:35:14.079Z,6.90
2023-04-25T02:37:41.558Z,6.80
2023-04-25T02:40:09.527Z,6.90
2023-04-25T02:42:36.847Z,6.90
2023-04-25T02:45:04.540Z,6.90
2023-04-25T02:47:32.289Z,6.90
2023-04-25T02:49:59.304Z,7.00
2023-04-25T02:52:26.348Z,6.90
2023-04-25T02:54:53.284Z,6.90
2023-04-25T02:57:20.081Z,6.90
2023-04-25T02:59:46.792Z,6.80
2023-04-25T03:02:13.593Z,6.90
2023-04-25T03:04:40.831Z,6.90
2023-04-25T03:07:08.098Z,6.80
2023-04-25T03:09:34.898Z,6.80
2023-04-25T03:12:02.430Z,6.80
2023-04-25T03:14:29.131Z,6.90
2023-04-25T03:16:55.873Z,6.90
2023-04-25T03:19:24.129Z,6.90
2023-04-25T03:21:50.908Z,7.00
2023-04-25T03:24:17.754Z,6.90
2023-04-25T03:26:44.536Z,6.80
2023-04-25T03:29:11.244Z,6.40
2023-04-25T03:31:38.103Z,6.30
2023-04-25T03:34:04.859Z,6.30
2023-04-25T03:36:31.637Z,6.30
2023-04-25T03:38:58.394Z,6.30
2023-04-25T03:41:25.986Z,6.40
2023-04-25T03:43:53.014Z,6.40
2023-04-25T03:46:20.093Z,6.50
2023-04-25T03:48:46.925Z,6.60
2023-04-25T03:51:13.673Z,6.50
2023-04-25T03:53:40.525Z,6.50
2023-04-25T03:56:07.855Z,6.50
2023-04-25T03:58:34.645Z,6.60
2023-04-25T04:01:03.745Z,6.70
2023-04-25T04:03:30.725Z,6.70
2023-04-25T04:05:57.627Z,6.80
2023-04-25T04:08:24.490Z,6.90
2023-04-25T04:10:51.195Z,6.80
2023-04-25T04:13:18.025Z,6.80
2023-04-25T04:15:44.878Z,6.80
2023-04-25T04:18:11.728Z,6.60
2023-04-25T04:20:38.521Z,6.40
2023-04-25T04:23:06.208Z,6.30
2023-04-25T04:25:32.956Z,6.30
2023-04-25T04:27:59.893Z,6.20
2023-04-25T04:30:26.684Z,6.30
2023-04-25T04:32:53.548Z,6.30
2023-04-25T04:35:20.368Z,6.30
2023-04-25T04:37:47.721Z,6.30
2023-04-25T04:40:18.589Z,6.40
2023-04-25T04:42:49.068Z,6.40
2023-04-25T04:45:17.199Z,6.40
2023-04-25T04:47:44.047Z,6.50
2023-04-25T04:50:11.729Z,6.50
2023-04-25T04:52:40.749Z,6.50
2023-04-25T04:55:08.740Z,6.50
2023-04-25T04:57:36.773Z,6.50
2023-04-25T05:00:08.418Z,6.40
2023-04-25T05:02:35.481Z,6.40
2023-04-25T05:05:03.759Z,6.40
2023-04-25T05:07:30.675Z,6.30
2023-04-25T05:09:57.359Z,6.40
2023-04-25T05:12:24.105Z,6.40
2023-04-25T05:14:50.864Z,6.40
2023-04-25T05:17:17.632Z,6.40
2023-04-25T05:19:44.319Z,6.50
2023-04-25T05:22:11.712Z,6.50
2023-04-25T05:24:38.607Z,6.50
2023-04-25T05:27:06.588Z,6.30
2023-04-25T05:29:33.370Z,6.30
2023-04-25T05:32:00.138Z,6.40
2023-04-25T05:34:26.976Z,6.40
2023-04-25T05:36:53.752Z,6.40
2023-04-25T05:39:20.893Z,6.40
2023-04-25T05:41:47.689Z,6.40
2023-04-25T05:44:14.416Z,6.50
2023-04-25T05:46:41.268Z,6.60
2023-04-25T05:49:08.054Z,6.50
2023-04-25T05:51:34.781Z,6.60
2023-04-25T05:54:01.497Z,6.70
2023-04-25T05:56:28.214Z,6.70
2023-04-25T05:58:55.043Z,6.80
2023-04-25T06:01:23.840Z,6.90
2023-04-25T06:06:19.960Z,6.90
2023-04-25T06:08:46.814Z,7.00
2023-04-25T06:11:13.674Z,7.00
2023-04-25T06:13:40.478Z,7.10
2023-04-25T06:16:08.383Z,7.00
2023-04-25T06:18:35.625Z,7.10
2023-04-25T06:21:02.388Z,7.10
2023-04-25T06:23:29.212Z,7.10
2023-04-25T06:25:55.965Z,7.00
2023-04-25T06:28:23.097Z,7.10
2023-04-25T06:30:51.866Z,7.10
2023-04-25T06:33:18.716Z,7.10
2023-04-25T06:35:45.554Z,7.00
2023-04-25T06:38:12.499Z,7.10
2023-04-25T06:40:39.325Z,7.00
2023-04-25T06:43:05.994Z,7.00
2023-04-25T06:45:32.835Z,7.10
2023-04-25T06:47:59.568Z,7.10
2023-04-25T06:50:26.543Z,7.10
2023-04-25T06:52:53.366Z,7.00
2023-04-25T06:55:20.651Z,7.00
2023-04-25T06:57:47.377Z,7.10
2023-04-25T07:00:15.025Z,7.10
2023-04-25T07:02:43.464Z,7.20
2023-04-25T07:05:10.884Z,7.20
2023-04-25T07:07:37.618Z,7.30
2023-04-25T07:10:04.903Z,7.30
2023-04-25T07:12:31.629Z,7.50
2023-04-25T07:14:58.312Z,7.60
2023-04-25T07:17:25.208Z,7.70
2023-04-25T07:19:52.375Z,7.70
2023-04-25T07:22:19.342Z,7.90
2023-04-25T07:24:49.561Z,8.00
2023-04-25T07:27:16.466Z,8.10
2023-04-25T07:29:43.218Z,8.20
2023-04-25T07:32:11.351Z,8.00
2023-04-25T07:34:39.584Z,7.90
2023-04-25T07:37:07.372Z,7.80
2023-04-25T07:39:34.221Z,7.80
2023-04-25T07:42:01.701Z,7.90
2023-04-25T07:44:28.613Z,7.80
2023-04-25T07:46:55.307Z,7.80
2023-04-25T07:49:22.083Z,8.10
2023-04-25T07:51:48.790Z,8.00
2023-04-25T07:54:19.287Z,8.20
2023-04-25T07:56:52.521Z,8.00
2023-04-25T07:59:20.584Z,8.00
2023-04-25T08:01:47.454Z,8.00
2023-04-25T08:04:14.909Z,7.90
2023-04-25T08:06:43.485Z,7.90
2023-04-25T08:09:10.936Z,8.00
2023-04-25T08:11:38.207Z,8.20
2023-04-25T08:14:06.687Z,8.60
2023-04-25T08:16:33.761Z,8.80
2023-04-25T08:19:01.576Z,8.80
2023-04-25T08:21:28.563Z,9.00
2023-04-25T08:23:55.399Z,8.90
2023-04-25T08:26:22.263Z,8.90
2023-04-25T08:28:51.259Z,8.80
2023-04-25T08:31:18.601Z,8.50
2023-04-25T08:33:46.077Z,8.20
2023-04-25T08:36:13.183Z,8.00
2023-04-25T08:38:41.468Z,7.80
2023-04-25T08:41:08.475Z,7.90
2023-04-25T08:43:36.293Z,8.00
2023-04-25T08:46:04.782Z,7.90
2023-04-25T08:48:35.301Z,7.90
2023-04-25T08:51:04.298Z,8.10
2023-04-25T08:53:36.269Z,8.20
2023-04-25T08:56:03.623Z,8.40
2023-04-25T08:58:31.426Z,8.80
2023-04-25T09:00:58.277Z,9.10
2023-04-25T09:03:25.491Z,9.20
2023-04-25T09:05:53.585Z,9.30
2023-04-25T09:08:20.413Z,9.60
2023-04-25T09:10:47.585Z,9.70
2023-04-25T09:13:26.582Z,10.20
2023-04-25T09:15:58.871Z,10.10
2023-04-25T09:18:35.665Z,10.00
2023-04-25T09:21:15.026Z,10.10
2023-04-25T09:23:48.470Z,10.00
2023-04-25T09:26:18.898Z,10.30
2023-04-25T09:28:49.140Z,10.30
2023-04-25T09:31:25.660Z,10.30
2023-04-25T09:34:02.073Z,10.10
2023-04-25T09:36:31.478Z,9.80
2023-04-25T09:39:02.055Z,9.70
2023-04-25T09:41:28.974Z,9.50
2023-04-25T09:44:02.753Z,9.20
2023-04-25T09:46:39.486Z,9.30
2023-04-25T09:49:09.459Z,9.30
2023-04-25T09:51:36.265Z,9.50
2023-04-25T09:54:04.176Z,9.60
2023-04-25T09:56:38.251Z,9.30
2023-04-25T09:59:06.736Z,9.40
2023-04-25T10:01:34.314Z,9.50
2023-04-25T10:04:07.767Z,9.30
2023-04-25T10:06:36.633Z,9.40
2023-04-25T10:09:04.886Z,9.60
2023-04-25T10:11:33.553Z,9.60
2023-04-25T10:14:02.378Z,9.60
2023-04-25T10:16:29.920Z,9.40
2023-04-25T10:18:57.561Z,9.60
2023-04-25T10:21:28.739Z,9.70
2023-04-25T10:23:56.895Z,9.80
2023-04-25T10:26:24.467Z,9.90
2023-04-25T10:28:58.200Z,10.00
2023-04-25T10:31:25.243Z,10.30
2023-04-25T10:33:52.576Z,10.50
2023-04-25T10:36:22.354Z,10.40
2023-04-25T10:38:52.449Z,10.00
2023-04-25T10:41:21.364Z,10.10
2023-04-25T10:43:50.623Z,10.20
2023-04-25T10:46:36.795Z,10.20
2023-04-25T10:49:05.066Z,10.00
2023-04-25T10:51:54.397Z,10.20
2023-04-25T10:54:27.000Z,10.30
2023-04-25T10:56:54.526Z,10.80
2023-04-25T10:59:26.261Z,11.00
2023-04-25T11:01:57.124Z,10.80
2023-04-25T11:04:29.634Z,10.50
2023-04-25T11:07:07.979Z,10.00
2023-04-25T11:09:39.390Z,9.80
2023-04-25T11:12:29.933Z,9.30
2023-04-25T11:15:02.212Z,9.00
2023-04-25T11:17:30.077Z,9.00
2023-04-25T11:19:57.448Z,8.90
2023-04-25T11:22:24.727Z,8.90
2023-04-25T11:24:52.538Z,9.00
2023-04-25T11:27:19.446Z,9.30
2023-04-25T11:29:49.268Z,9.40
2023-04-25T11:32:21.359Z,9.80
2023-04-25T11:34:48.872Z,9.70
2023-04-25T11:37:16.571Z,10.00
2023-04-25T11:39:49.626Z,10.00
2023-04-25T11:42:16.613Z,10.10
2023-04-25T11:44:43.714Z,10.30
2023-04-25T11:47:10.677Z,10.80
2023-04-25T11:49:37.677Z,10.40
2023-04-25T11:52:08.493Z,9.50
2023-04-25T11:54:38.729Z,9.20
2023-04-25T11:57:05.752Z,9.20
2023-04-25T11:59:32.541Z,8.80
2023-04-25T12:01:59.260Z,8.70
2023-04-25T12:04:26.451Z,8.50
2023-04-25T12:06:56.237Z,8.50
2023-04-25T12:09:34.733Z,8.50
2023-04-25T12:12:06.586Z,8.50
2023-04-25T12:14:37.195Z,8.60
2023-04-25T12:17:08.957Z,8.70
2023-04-25T12:19:42.232Z,8.90
2023-04-25T12:22:25.246Z,8.90
2023-04-25T12:24:54.266Z,8.90
2023-04-25T12:27:21.082Z,8.90
2023-04-25T12:30:14.474Z,9.00
2023-04-25T12:32:41.307Z,9.40
2023-04-25T12:35:08.622Z,9.90
2023-04-25T12:37:38.316Z,10.30
2023-04-25T12:40:07.593Z,10.40
2023-04-25T12:42:35.614Z,10.30
2023-04-25T12:45:02.343Z,10.20
2023-04-25T12:47:29.154Z,10.60
2023-04-25T12:49:56.043Z,11.00
2023-04-25T12:52:22.806Z,11.10
2023-04-25T12:54:49.501Z,10.70
2023-04-25T12:57:16.621Z,10.90
2023-04-25T12:59:43.434Z,10.60
2023-04-25T13:02:10.301Z,10.20
2023-04-25T13:04:37.257Z,10.20
2023-04-25T13:07:04.552Z,10.40
2023-04-25T13:09:31.383Z,10.30
2023-04-25T13:11:59.400Z,10.70
2023-04-25T13:14:27.436Z,11.00
2023-04-25T13:16:55.256Z,11.00
2023-04-25T13:19:22.311Z,10.90
2023-04-25T13:21:49.136Z,11.10
2023-04-25T13:24:16.635Z,11.30
2023-04-25T13:26:43.401Z,11.40
2023-04-25T13:29:10.171Z,11.40
2023-04-25T13:31:36.970Z,11.60
2023-04-25T13:34:04.626Z,11.60
2023-04-25T13:36:33.184Z,11.70
2023-04-25T13:38:59.963Z,11.50
2023-04-25T13:41:26.697Z,11.30
2023-04-25T13:43:53.774Z,11.40
2023-04-25T13:46:40.900Z,11.40
2023-04-25T13:49:12.818Z,11.80
2023-04-25T13:51:41.538Z,11.90
2023-04-25T13:54:08.539Z,11.70
2023-04-25T13:56:35.567Z,12.00
2023-04-25T13:59:02.400Z,11.80
2023-04-25T14:01:31.450Z,11.90
2023-04-25T14:03:59.510Z,12.00
2023-04-25T14:06:27.273Z,11.70
2023-04-25T14:08:55.376Z,11.80
2023-04-25T14:11:22.120Z,11.80
2023-04-25T14:13:50.318Z,11.40
2023-04-25T14:16:18.078Z,10.80
2023-04-25T14:18:45.067Z,10.60
2023-04-25T14:21:11.978Z,10.60
2023-04-25T14:23:38.698Z,10.40
2023-04-25T14:26:06.499Z,10.20
2023-04-25T14:28:33.317Z,10.10
2023-04-25T14:31:00.069Z,10.10
2023-04-25T14:33:26.943Z,10.10
2023-04-25T14:35:53.980Z,10.50
2023-04-25T14:38:24.112Z,10.60
2023-04-25T14:40:55.010Z,10.70
2023-04-25T14:43:21.779Z,10.80
2023-04-25T14:45:48.668Z,11.00
2023-04-25T14:48:16.177Z,11.20
2023-04-25T14:50:43.065Z,11.30
2023-04-25T14:53:09.845Z,11.10
2023-04-25T14:55:37.609Z,11.10
2023-04-25T14:58:04.341Z,11.50
2023-04-25T15:00:32.606Z,11.40
2023-04-25T15:03:00.105Z,11.50
2023-04-25T15:05:27.195Z,11.30
2023-04-25T15:07:53.912Z,11.40
2023-04-25T15:10:23.506Z,11.30
2023-04-25T15:12:51.374Z,11.00
2023-04-25T15:15:26.058Z,10.70
2023-04-25T15:17:59.317Z,10.60
2023-04-25T15:20:29.823Z,10.40
2023-04-25T15:22:59.242Z,10.60
2023-04-25T15:25:26.254Z,10.90
2023-04-25T15:27:54.781Z,11.10
2023-04-25T15:30:21.705Z,11.00
2023-04-25T15:32:50.068Z,10.80
2023-04-25T15:35:16.969Z,10.60
2023-04-25T15:37:44.006Z,11.10
2023-04-25T15:40:15.654Z,11.20
2023-04-25T15:42:48.679Z,11.00
2023-04-25T15:45:18.653Z,10.80
2023-04-25T15:47:46.271Z,10.40
2023-04-25T15:50:15.806Z,10.40
2023-04-25T15:52:43.439Z,10.30
2023-04-25T15:55:13.290Z,10.30
2023-04-25T15:57:42.382Z,10.50
2023-04-25T16:00:14.986Z,10.30
2023-04-25T16:02:44.664Z,10.00
2023-04-25T16:05:15.219Z,10.00
2023-04-25T16:07:46.629Z,9.80
2023-04-25T16:10:17.061Z,9.40
2023-04-25T16:12:43.838Z,9.50
2023-04-25T16:15:11.450Z,9.40
2023-04-25T16:17:38.363Z,9.60
2023-04-25T16:20:10.613Z,9.60
2023-04-25T16:22:42.890Z,9.80
2023-04-25T16:25:11.845Z,9.70
2023-04-25T16:27:39.411Z,9.80
2023-04-25T16:30:11.619Z,9.90
2023-04-25T16:32:39.805Z,9.90
2023-04-25T16:35:07.388Z,9.90
2023-04-25T16:37:34.200Z,10.00
2023-04-25T16:40:00.930Z,10.10
2023-04-25T16:42:27.622Z,10.00
2023-04-25T16:44:54.430Z,10.00
2023-04-25T16:47:21.398Z,10.00
2023-04-25T16:49:48.284Z,9.70
2023-04-25T16:52:15.946Z,9.70
2023-04-25T16:54:42.705Z,9.70
2023-04-25T16:57:11.652Z,9.70
2023-04-25T16:59:41.495Z,9.70
2023-04-25T17:02:13.105Z,9.70
2023-04-25T17:04:42.927Z,9.60
2023-04-25T17:07:09.715Z,9.50
2023-04-25T17:09:36.716Z,9.40
2023-04-25T17:12:04.453Z,9.30
2023-04-25T17:14:33.438Z,9.50
2023-04-25T17:17:01.915Z,9.60
2023-04-25T17:19:31.509Z,9.60
2023-04-25T17:21:58.412Z,9.40
2023-04-25T17:24:25.461Z,9.40
2023-04-25T17:26:52.261Z,9.50
2023-04-25T17:29:19.394Z,9.50
2023-04-25T17:31:46.859Z,9.40
2023-04-25T17:34:17.793Z,9.40
2023-04-25T17:36:45.790Z,9.30
2023-04-25T17:39:14.722Z,9.40
2023-04-25T17:41:41.808Z,9.30
2023-04-25T17:44:09.051Z,9.20
2023-04-25T17:46:36.343Z,9.10
2023-04-25T17:49:03.158Z,9.20
2023-04-25T17:51:30.410Z,9.20
2023-04-25T17:53:57.255Z,9.10
2023-04-25T17:56:27.451Z,9.10
2023-04-25T17:58:55.756Z,9.10
2023-04-25T18:01:22.943Z,9.00
2023-04-25T18:03:50.547Z,8.90
2023-04-25T18:06:18.290Z,9.00
2023-04-25T18:08:46.063Z,9.10
2023-04-25T18:11:13.069Z,9.00
2023-04-25T18:13:40.725Z,8.80
2023-04-25T18:16:08.003Z,8.70
2023-04-25T18:18:36.093Z,8.60
2023-04-25T18:21:05.075Z,8.70
2023-04-25T18:23:33.877Z,8.60
2023-04-25T18:26:02.179Z,8.60
2023-04-25T18:28:29.335Z,8.60
2023-04-25T18:30:56.693Z,8.50
2023-04-25T18:33:23.761Z,8.60
2023-04-25T18:35:58.832Z,8.60
2023-04-25T18:41:06.070Z,8.40
2023-04-25T18:43:44.725Z,8.40
2023-04-25T18:46:12.031Z,8.30
2023-04-25T18:48:38.780Z,8.20
2023-04-25T18:51:05.657Z,8.20
2023-04-25T18:53:32.717Z,8.10
2023-04-25T18:55:59.465Z,8.20
2023-04-25T18:58:26.352Z,8.30
2023-04-25T19:00:53.562Z,8.30
2023-04-25T19:03:21.820Z,8.40
2023-04-25T19:05:48.886Z,8.40
2023-04-25T19:08:15.651Z,8.30
2023-04-25T19:10:42.408Z,8.20
2023-04-25T19:13:09.438Z,8.30
2023-04-25T19:15:36.306Z,8.20
2023-04-25T19:18:03.073Z,8.20
2023-04-25T19:20:29.887Z,8.20
2023-04-25T19:22:56.809Z,8.20
2023-04-25T19:25:24.963Z,8.20
2023-04-25T19:27:52.189Z,8.20
2023-04-25T19:30:19.326Z,8.20
2023-04-25T19:32:46.206Z,8.30
2023-04-25T19:35:13.744Z,8.20
2023-04-25T19:37:46.175Z,8.10
2023-04-25T19:40:16.616Z,8.00
2023-04-25T19:42:44.907Z,8.10
2023-04-25T19:45:12.059Z,8.00
2023-04-25T19:47:38.895Z,7.90
2023-04-25T19:50:09.312Z,7.90
2023-04-25T19:52:37.651Z,7.80
2023-04-25T19:55:05.253Z,7.70
2023-04-25T19:57:38.214Z,7.90
2023-04-25T20:00:25.112Z,7.70
2023-04-25T20:02:51.889Z,7.60
2023-04-25T20:05:18.772Z,7.50
2023-04-25T20:07:45.461Z,7.40
2023-04-25T20:10:16.338Z,7.50
2023-04-25T20:12:44.787Z,7.50
2023-04-25T20:15:12.231Z,7.40
2023-04-25T20:17:42.771Z,7.40
2023-04-25T20:20:11.995Z,7.50
2023-04-25T20:22:40.782Z,7.50
2023-04-25T20:25:18.212Z,7.60
2023-04-25T20:27:47.500Z,7.60
2023-04-25T20:30:16.272Z,7.70
2023-04-25T20:32:43.203Z,7.70
2023-04-25T20:35:10.208Z,7.60
2023-04-25T20:37:37.545Z,7.60
2023-04-25T20:40:08.900Z,7.60
2023-04-25T20:42:36.283Z,7.50
2023-04-25T20:45:07.501Z,7.60
2023-04-25T20:47:34.967Z,7.60
2023-04-25T20:50:03.935Z,7.60
2023-04-25T20:52:31.859Z,7.70
2023-04-25T20:54:59.333Z,7.50
2023-04-25T20:57:26.133Z,7.50
2023-04-25T20:59:53.005Z,7.50
2023-04-25T21:02:19.990Z,7.50
2023-04-25T21:04:46.892Z,7.50
2023-04-25T21:07:13.810Z,7.60
2023-04-25T21:09:42.788Z,7.50
2023-04-25T21:12:09.535Z,7.70
2023-04-25T21:14:36.341Z,7.70
2023-04-25T21:17:04.429Z,7.80
2023-04-25T21:19:31.634Z,7.70
2023-04-25T21:21:59.242Z,7.80
2023-04-25T21:24:27.278Z,7.80
2023-04-25T21:26:54.178Z,7.70
2023-04-25T21:29:20.940Z,7.60
2023-04-25T21:31:48.104Z,7.60
2023-04-25T21:34:14.890Z,7.60
2023-04-25T21:36:41.572Z,7.70
2023-04-25T21:39:08.390Z,7.70
2023-04-25T21:41:37.490Z,7.70
2023-04-25T21:44:04.658Z,7.60
2023-04-25T21:46:31.438Z,7.60
2023-04-25T21:48:58.303Z,7.70
2023-04-25T21:51:25.457Z,7.70
2023-04-25T21:53:55.127Z,7.70
2023-04-25T21:56:21.903Z,7.80
2023-04-25T21:58:49.843Z,7.80
2023-04-25T22:01:17.631Z,7.80
2023-04-25T22:03:44.628Z,7.80
2023-04-25T22:06:11.542Z,7.90
2023-04-25T22:08:38.254Z,7.90
2023-04-25T22:11:07.246Z,7.90
2023-04-25T22:13:34.063Z,8.00
2023-04-25T22:16:00.863Z,8.00
2023-04-25T22:18:27.684Z,8.00
2023-04-25T22:20:54.599Z,8.00
2023-04-25T22:23:21.306Z,7.90
2023-04-25T22:25:48.018Z,7.90
2023-04-25T22:28:15.103Z,7.90
2023-04-25T22:30:42.202Z,7.90
2023-04-25T22:33:09.080Z,7.80
2023-04-25T22:35:35.842Z,7.80
2023-04-25T22:38:03.538Z,7.80
2023-04-25T22:40:30.560Z,7.70
2023-04-25T22:42:57.784Z,7.70
2023-04-25T22:45:24.473Z,7.60
2023-04-25T22:47:51.386Z,7.60
2023-04-25T22:50:19.377Z,7.60
2023-04-25T22:52:49.082Z,7.60
2023-04-25T22:55:15.916Z,7.50
2023-04-25T22:57:43.314Z,7.40
2023-04-25T23:00:19.528Z,7.40
2023-04-25T23:02:47.863Z,7.40
2023-04-25T23:05:15.516Z,7.40
2023-04-25T23:07:43.556Z,7.40
2023-04-25T23:10:10.927Z,7.30
2023-04-25T23:12:37.890Z,7.40
2023-04-25T23:15:05.330Z,7.40
2023-04-25T23:17:32.313Z,7.30
2023-04-25T23:19:59.197Z,7.20
2023-04-25T23:22:25.981Z,7.20
2023-04-25T23:24:52.808Z,7.00
2023-04-25T23:27:19.573Z,7.00
2023-04-25T23:29:56.712Z,7.00
2023-04-25T23:32:27.884Z,7.20
2023-04-25T23:34:55.038Z,7.20
2023-04-25T23:37:21.754Z,7.10
2023-04-25T23:39:52.798Z,7.20
2023-04-25T23:42:20.915Z,7.10
2023-04-25T23:44:47.684Z,7.20
2023-04-25T23:47:17.444Z,7.30
2023-04-25T23:49:45.357Z,7.40
2023-04-25T23:52:13.033Z,7.30
2023-04-25T23:54:39.714Z,7.20
2023-04-25T23:57:06.425Z,7.20
2023-04-25T23:59:35.969Z,7.20
